Time;durP1;ratioP1;P1;durP2;ratioP2;P2;SDS_P1;SDS_P2;PMS_P1;PMS_P2;Temp;Humidity;BMP_temperature;BMP_pressure;BME280_temperature;BME280_humidity;BME280_pressure;Samples;Min_cycle;Max_cycle;Signal;HPM_P1;HPM_P2
2022/07/17 00:02:59;;;;;;;5.25;2.75;;;;;;;;;;6192245;23;20195;-90
2022/07/17 00:06:06;;;;;;;7.35;3.17;;;;;;;;;;6193049;23;20168;-90
2022/07/17 00:09:11;;;;;;;5.15;2.42;;;;;;;;;;6194779;23;20172;-89
2022/07/17 00:12:16;;;;;;;9.55;3.20;;;;;;;;;;6192153;23;20219;-89
2022/07/17 00:15:21;;;;;;;4.90;2.72;;;;;;;;;;6195858;23;20180;-88
2022/07/17 00:18:25;;;;;;;7.45;2.90;;;;;;;;;;6192649;23;20172;-90
2022/07/17 00:21:32;;;;;;;5.68;3.03;;;;;;;;;;6195887;23;20199;-88
2022/07/17 00:24:37;;;;;;;5.50;2.80;;;;;;;;;;6199044;23;20194;-90
2022/07/17 00:27:42;;;;;;;6.20;3.22;;;;;;;;;;6198977;23;20258;-90
2022/07/17 00:30:47;;;;;;;5.32;2.90;;;;;;;;;;6196192;23;20200;-89
2022/07/17 00:33:52;;;;;;;6.45;3.20;;;;;;;;;;6195323;23;20171;-88
2022/07/17 00:36:58;;;;;;;5.25;2.70;;;;;;;;;;6197595;23;20171;-87
2022/07/17 00:43:24;;;;;;;6.05;2.88;;;;;;;;;;6200227;23;20219;-89
2022/07/17 00:46:30;;;;;;;6.78;2.80;;;;;;;;;;6199370;23;20168;-91
2022/07/17 00:49:35;;;;;;;9.40;2.97;;;;;;;;;;6197752;23;20175;-88
2022/07/17 00:52:42;;;;;;;4.75;3.20;;;;;;;;;;6197557;23;20171;-89
2022/07/17 00:55:47;;;;;;;6.88;2.83;;;;;;;;;;6198736;23;20298;-87
2022/07/17 00:58:52;;;;;;;5.85;3.10;;;;;;;;;;6201150;23;20172;-89
2022/07/17 01:01:57;;;;;;;4.68;2.67;;;;;;;;;;6194252;23;20187;-90
2022/07/17 01:05:02;;;;;;;16.75;3.03;;;;;;;;;;6193272;23;20311;-88
2022/07/17 01:08:09;;;;;;;5.50;3.00;;;;;;;;;;6192686;23;20311;-88
2022/07/17 01:11:14;;;;;;;5.20;3.10;;;;;;;;;;6192430;23;20309;-90
2022/07/17 01:14:19;;;;;;;7.10;3.33;;;;;;;;;;6192311;23;20195;-86
2022/07/17 01:17:25;;;;;;;6.60;3.78;;;;;;;;;;6192809;23;20353;-89
2022/07/17 01:20:29;;;;;;;7.05;3.22;;;;;;;;;;6194000;23;20264;-89
2022/07/17 01:23:36;;;;;;;4.35;2.78;;;;;;;;;;6193149;23;20222;-88
2022/07/17 01:26:43;;;;;;;10.30;3.08;;;;;;;;;;6193775;23;20176;-87
2022/07/17 01:29:49;;;;;;;8.63;3.83;;;;;;;;;;6193846;23;20167;-88
2022/07/17 01:32:54;;;;;;;6.15;3.35;;;;;;;;;;6195262;23;20219;-88
2022/07/17 01:35:59;;;;;;;7.20;3.35;;;;;;;;;;6194639;23;20176;-89
2022/07/17 01:39:06;;;;;;;7.15;3.25;;;;;;;;;;6194416;23;20202;-88
2022/07/17 01:42:11;;;;;;;5.40;3.28;;;;;;;;;;6196137;23;20180;-88
2022/07/17 01:45:17;;;;;;;5.57;3.22;;;;;;;;;;6196413;23;20676;-89
2022/07/17 01:48:26;;;;;;;5.47;3.13;;;;;;;;;;6192514;23;20195;-87
2022/07/17 01:51:31;;;;;;;5.07;2.83;;;;;;;;;;6191752;23;20224;-88
2022/07/17 01:54:37;;;;;;;8.93;3.78;;;;;;;;;;6191501;23;20207;-88
2022/07/17 01:57:43;;;;;;;5.55;3.05;;;;;;;;;;6193027;23;20159;-88
2022/07/17 02:00:48;;;;;;;5.60;3.05;;;;;;;;;;6190837;23;20284;-89
2022/07/17 02:03:53;;;;;;;5.72;3.20;;;;;;;;;;6190971;23;20527;-88
2022/07/17 02:06:58;;;;;;;5.82;3.33;;;;;;;;;;6196128;23;20172;-89
2022/07/17 02:10:05;;;;;;;4.38;2.80;;;;;;;;;;6193078;23;20171;-89
2022/07/17 02:13:10;;;;;;;5.93;3.53;;;;;;;;;;6190966;23;20507;-88
2022/07/17 02:16:15;;;;;;;4.63;2.80;;;;;;;;;;6192203;23;20205;-89
2022/07/17 02:19:20;;;;;;;5.93;3.30;;;;;;;;;;6193072;23;20167;-89
2022/07/17 02:22:25;;;;;;;7.03;3.40;;;;;;;;;;6192030;23;20188;-88
2022/07/17 02:25:32;;;;;;;10.55;3.95;;;;;;;;;;6192998;23;20188;-89
2022/07/17 02:28:38;;;;;;;5.85;3.03;;;;;;;;;;6193080;23;20266;-88
2022/07/17 02:31:43;;;;;;;5.75;3.40;;;;;;;;;;6192537;23;20243;-89
2022/07/17 02:34:48;;;;;;;6.03;3.25;;;;;;;;;;6191277;23;20624;-89
2022/07/17 02:37:53;;;;;;;9.32;4.43;;;;;;;;;;6191633;23;20262;-90
2022/07/17 02:41:00;;;;;;;9.73;3.47;;;;;;;;;;6193278;23;20597;-88
2022/07/17 02:44:05;;;;;;;5.85;3.25;;;;;;;;;;6192937;23;20171;-89
2022/07/17 02:47:10;;;;;;;6.28;3.42;;;;;;;;;;6194017;23;20172;-88
2022/07/17 02:50:15;;;;;;;5.55;3.28;;;;;;;;;;6192763;23;20207;-89
2022/07/17 02:53:21;;;;;;;6.72;3.00;;;;;;;;;;6192238;23;20246;-88
2022/07/17 02:56:27;;;;;;;9.38;4.07;;;;;;;;;;6192032;23;20262;-88
2022/07/17 02:59:32;;;;;;;11.60;3.45;;;;;;;;;;6193458;23;20172;-90
2022/07/17 03:02:37;;;;;;;5.45;3.30;;;;;;;;;;6192979;23;20211;-89
2022/07/17 03:05:42;;;;;;;5.63;3.20;;;;;;;;;;6192816;23;20168;-89
2022/07/17 03:08:46;;;;;;;5.15;2.80;;;;;;;;;;6191984;23;20195;-89
2022/07/17 03:11:53;;;;;;;4.18;2.85;;;;;;;;;;6193192;23;20179;-90
2022/07/17 03:14:58;;;;;;;6.38;3.53;;;;;;;;;;6191655;23;20171;-88
2022/07/17 03:18:03;;;;;;;6.90;3.30;;;;;;;;;;6191797;23;20183;-89
2022/07/17 03:21:08;;;;;;;7.47;3.03;;;;;;;;;;6193163;23;20172;-89
2022/07/17 03:24:13;;;;;;;7.53;3.05;;;;;;;;;;6191026;23;20172;-88
2022/07/17 03:27:19;;;;;;;4.78;3.05;;;;;;;;;;6190699;23;20584;-87
2022/07/17 03:30:24;;;;;;;5.97;3.03;;;;;;;;;;6191473;23;20172;-88
2022/07/17 03:33:29;;;;;;;5.50;3.08;;;;;;;;;;6190119;23;20294;-89
2022/07/17 03:36:34;;;;;;;5.10;2.85;;;;;;;;;;6191650;23;20187;-88
2022/07/17 03:39:40;;;;;;;7.13;3.22;;;;;;;;;;6192241;23;20631;-89
2022/07/17 03:42:47;;;;;;;4.68;3.10;;;;;;;;;;6191246;23;20175;-88
2022/07/17 03:45:55;;;;;;;4.80;2.90;;;;;;;;;;6191544;23;20168;-88
2022/07/17 03:49:00;;;;;;;6.68;2.95;;;;;;;;;;6191732;23;20192;-88
2022/07/17 03:52:05;;;;;;;5.90;3.42;;;;;;;;;;6192935;23;20509;-88
2022/07/17 03:55:10;;;;;;;4.13;2.80;;;;;;;;;;6192108;23;20172;-88
2022/07/17 03:58:16;;;;;;;5.70;2.92;;;;;;;;;;6192274;23;20708;-88
2022/07/17 04:01:23;;;;;;;6.35;3.30;;;;;;;;;;6190852;23;20662;-89
2022/07/17 04:04:28;;;;;;;5.78;3.35;;;;;;;;;;6192649;23;20191;-89
2022/07/17 04:07:33;;;;;;;4.43;3.03;;;;;;;;;;6188254;23;20168;-89
2022/07/17 04:10:38;;;;;;;5.63;2.90;;;;;;;;;;6194275;23;20180;-89
2022/07/17 04:13:44;;;;;;;6.20;3.00;;;;;;;;;;6191781;23;20283;-88
2022/07/17 04:16:49;;;;;;;4.60;3.30;;;;;;;;;;6191522;23;20171;-88
2022/07/17 04:19:55;;;;;;;6.22;3.35;;;;;;;;;;6192917;23;20164;-89
2022/07/17 04:23:00;;;;;;;6.57;2.90;;;;;;;;;;6192181;23;20171;-89
2022/07/17 04:26:06;;;;;;;4.88;3.03;;;;;;;;;;6190852;23;20259;-87
2022/07/17 04:29:12;;;;;;;5.72;2.97;;;;;;;;;;6192867;23;20670;-89
2022/07/17 04:32:17;;;;;;;5.15;2.95;;;;;;;;;;6193035;23;20215;-88
2022/07/17 04:35:22;;;;;;;5.15;3.10;;;;;;;;;;6193408;23;20164;-87
2022/07/17 04:38:27;;;;;;;9.60;3.15;;;;;;;;;;6193948;23;20663;-87
2022/07/17 04:41:32;;;;;;;8.30;3.05;;;;;;;;;;6194396;23;20168;-88
2022/07/17 04:44:39;;;;;;;6.45;3.22;;;;;;;;;;6193597;23;20187;-87
2022/07/17 04:47:44;;;;;;;5.50;3.10;;;;;;;;;;6192890;23;20171;-89
2022/07/17 04:50:50;;;;;;;4.88;3.15;;;;;;;;;;6192621;23;20630;-89
2022/07/17 04:53:58;;;;;;;5.80;3.05;;;;;;;;;;6194071;23;20176;-89
2022/07/17 04:57:04;;;;;;;4.63;2.92;;;;;;;;;;6192342;23;20172;-88
2022/07/17 05:00:11;;;;;;;6.97;3.30;;;;;;;;;;6193425;23;20172;-89
2022/07/17 05:03:16;;;;;;;4.60;3.22;;;;;;;;;;6193829;23;20199;-90
2022/07/17 05:06:21;;;;;;;5.50;3.20;;;;;;;;;;6192846;23;20291;-88
2022/07/17 05:09:27;;;;;;;5.90;3.28;;;;;;;;;;6194744;23;20191;-89
2022/07/17 05:12:32;;;;;;;5.05;3.47;;;;;;;;;;6194506;23;20176;-89
2022/07/17 05:15:38;;;;;;;4.63;2.92;;;;;;;;;;6193151;23;20179;-89
2022/07/17 05:18:43;;;;;;;5.43;3.20;;;;;;;;;;6193109;23;20175;-90
2022/07/17 05:21:48;;;;;;;7.20;3.33;;;;;;;;;;6193933;23;20171;-90
2022/07/17 05:24:57;;;;;;;6.32;3.10;;;;;;;;;;6194002;23;20175;-89
2022/07/17 05:28:02;;;;;;;7.18;3.30;;;;;;;;;;6194805;23;20187;-90
2022/07/17 05:31:09;;;;;;;5.53;3.67;;;;;;;;;;6195739;23;20176;-90
2022/07/17 05:34:15;;;;;;;7.63;3.50;;;;;;;;;;6194047;23;20311;-89
2022/07/17 05:37:20;;;;;;;6.20;3.22;;;;;;;;;;6196161;23;20172;-89
2022/07/17 05:40:26;;;;;;;6.28;3.35;;;;;;;;;;6193084;23;20215;-89
2022/07/17 05:43:31;;;;;;;4.25;2.90;;;;;;;;;;6193788;23;20171;-89
2022/07/17 05:46:37;;;;;;;5.00;3.10;;;;;;;;;;6195968;23;20171;-89
2022/07/17 05:49:42;;;;;;;5.25;3.40;;;;;;;;;;6194338;23;20196;-89
2022/07/17 05:52:48;;;;;;;6.43;2.92;;;;;;;;;;6192591;23;20490;-89
2022/07/17 05:55:53;;;;;;;7.80;3.10;;;;;;;;;;6195367;23;20176;-88
2022/07/17 05:58:59;;;;;;;4.97;2.83;;;;;;;;;;6196040;23;20231;-88
2022/07/17 06:02:05;;;;;;;4.75;2.70;;;;;;;;;;6195432;23;20229;-90
2022/07/17 06:05:10;;;;;;;5.90;2.97;;;;;;;;;;6195323;23;20148;-87
2022/07/17 06:08:15;;;;;;;6.72;2.38;;;;;;;;;;6198218;23;20171;-91
2022/07/17 06:11:20;;;;;;;5.07;2.78;;;;;;;;;;6195204;23;20716;-89
2022/07/17 06:14:25;;;;;;;4.90;2.67;;;;;;;;;;6192493;23;20171;-89
2022/07/17 06:17:31;;;;;;;7.65;2.65;;;;;;;;;;6193282;23;20219;-89
2022/07/17 06:20:37;;;;;;;3.72;2.22;;;;;;;;;;6194372;23;20187;-90
2022/07/17 06:23:42;;;;;;;5.72;2.70;;;;;;;;;;6195223;23;20188;-90
2022/07/17 06:26:47;;;;;;;4.03;2.65;;;;;;;;;;6194764;23;20172;-89
2022/07/17 06:29:53;;;;;;;5.20;2.70;;;;;;;;;;6193779;23;20195;-89
2022/07/17 06:32:59;;;;;;;3.38;2.35;;;;;;;;;;6193656;23;20295;-90
2022/07/17 06:36:04;;;;;;;3.92;2.30;;;;;;;;;;6193952;23;20175;-89
2022/07/17 06:39:09;;;;;;;8.23;2.63;;;;;;;;;;6193724;23;20268;-88
2022/07/17 06:42:14;;;;;;;5.28;2.83;;;;;;;;;;6193663;23;20164;-90
2022/07/17 06:45:20;;;;;;;4.45;2.38;;;;;;;;;;6191607;23;20178;-90
2022/07/17 06:48:27;;;;;;;3.35;2.20;;;;;;;;;;6192119;23;20173;-89
2022/07/17 06:51:32;;;;;;;3.88;2.00;;;;;;;;;;6192612;23;20275;-88
2022/07/17 06:54:37;;;;;;;4.10;1.83;;;;;;;;;;6197243;23;20159;-89
2022/07/17 06:57:42;;;;;;;4.45;1.70;;;;;;;;;;6193414;23;20168;-89
2022/07/17 07:00:47;;;;;;;3.40;1.80;;;;;;;;;;6195550;23;20502;-90
2022/07/17 07:03:54;;;;;;;2.50;1.75;;;;;;;;;;6194718;23;20214;-90
2022/07/17 07:06:59;;;;;;;5.88;1.77;;;;;;;;;;6192377;23;20168;-90
2022/07/17 07:10:05;;;;;;;5.72;1.83;;;;;;;;;;6194729;23;20265;-88
2022/07/17 07:13:12;;;;;;;5.40;1.80;;;;;;;;;;6195032;23;20171;-91
2022/07/17 07:16:17;;;;;;;7.45;1.55;;;;;;;;;;6213214;23;20259;-90
2022/07/17 07:19:24;;;;;;;5.35;1.75;;;;;;;;;;6193851;23;20588;-91
2022/07/17 07:22:29;;;;;;;4.45;1.30;;;;;;;;;;6191696;23;20172;-90
2022/07/17 07:25:34;;;;;;;2.67;1.30;;;;;;;;;;6191768;23;20159;-88
2022/07/17 07:28:39;;;;;;;2.58;1.15;;;;;;;;;;6195831;23;20234;-90
2022/07/17 07:31:46;;;;;;;2.92;1.15;;;;;;;;;;6195379;23;20176;-89
2022/07/17 07:34:54;;;;;;;2.72;1.30;;;;;;;;;;6194826;23;20507;-88
2022/07/17 07:37:59;;;;;;;2.55;1.60;;;;;;;;;;6192668;23;20172;-88
2022/07/17 07:41:04;;;;;;;3.25;1.20;;;;;;;;;;6192270;23;20235;-92
2022/07/17 07:44:10;;;;;;;6.80;1.35;;;;;;;;;;6191184;23;20339;-88
2022/07/17 07:47:15;;;;;;;2.85;1.10;;;;;;;;;;6193127;23;20164;-90
2022/07/17 07:50:23;;;;;;;5.50;1.30;;;;;;;;;;6197407;23;20247;-90
2022/07/17 07:53:29;;;;;;;4.03;1.35;;;;;;;;;;6195179;23;20663;-89
2022/07/17 07:56:35;;;;;;;6.15;1.33;;;;;;;;;;6197504;23;20175;-88
2022/07/17 07:59:41;;;;;;;3.97;1.25;;;;;;;;;;6193373;23;20176;-89
2022/07/17 08:02:46;;;;;;;3.13;1.30;;;;;;;;;;6195165;23;20167;-88
2022/07/17 08:05:54;;;;;;;5.82;1.40;;;;;;;;;;6196890;23;20175;-89
2022/07/17 08:08:58;;;;;;;8.10;1.20;;;;;;;;;;6197240;23;20307;-89
2022/07/17 08:12:03;;;;;;;3.10;1.02;;;;;;;;;;6191791;23;20475;-90
2022/07/17 08:15:09;;;;;;;2.10;1.10;;;;;;;;;;6195295;23;20175;-90
2022/07/17 08:18:14;;;;;;;4.18;1.30;;;;;;;;;;6195828;23;20211;-90
2022/07/17 08:21:22;;;;;;;5.03;1.52;;;;;;;;;;6196360;23;20167;-90
2022/07/17 08:24:27;;;;;;;4.95;1.33;;;;;;;;;;6197123;23;20626;-91
2022/07/17 08:27:36;;;;;;;5.10;1.20;;;;;;;;;;6198341;23;20171;-90
2022/07/17 08:30:44;;;;;;;4.38;1.25;;;;;;;;;;6197886;23;20182;-88
2022/07/17 08:33:54;;;;;;;4.95;1.35;;;;;;;;;;6200874;23;20216;-88
2022/07/17 08:37:00;;;;;;;4.30;1.20;;;;;;;;;;6199522;23;20175;-89
2022/07/17 08:40:06;;;;;;;2.33;1.08;;;;;;;;;;6200361;23;20175;-90
2022/07/17 08:43:14;;;;;;;3.47;1.30;;;;;;;;;;6195878;23;20218;-89
2022/07/17 08:46:20;;;;;;;8.07;1.30;;;;;;;;;;6197182;23;20232;-89
2022/07/17 08:49:26;;;;;;;3.78;1.40;;;;;;;;;;6201972;23;20266;-89
2022/07/17 08:52:32;;;;;;;5.03;1.40;;;;;;;;;;6197112;23;20346;-93
2022/07/17 08:55:37;;;;;;;4.07;1.20;;;;;;;;;;6199390;23;20352;-89
2022/07/17 08:58:43;;;;;;;1.50;1.10;;;;;;;;;;6200922;23;20190;-91
2022/07/17 09:01:49;;;;;;;1.60;1.20;;;;;;;;;;6197673;23;20220;-91
2022/07/17 09:04:54;;;;;;;2.33;1.10;;;;;;;;;;6201688;23;20191;-90
2022/07/17 09:08:04;;;;;;;5.45;1.52;;;;;;;;;;6199575;23;20346;-91
2022/07/17 09:11:10;;;;;;;2.63;1.20;;;;;;;;;;6199245;23;20195;-91
2022/07/17 09:14:16;;;;;;;3.35;1.48;;;;;;;;;;6197823;23;20250;-90
2022/07/17 09:17:22;;;;;;;4.47;1.30;;;;;;;;;;6198311;23;20194;-90
2022/07/17 09:20:30;;;;;;;3.08;1.55;;;;;;;;;;6201623;23;20187;-89
2022/07/17 09:23:37;;;;;;;3.58;1.20;;;;;;;;;;6197131;23;20171;-90
2022/07/17 09:26:45;;;;;;;3.50;1.58;;;;;;;;;;6197515;23;20167;-90
2022/07/17 09:29:55;;;;;;;4.07;2.28;;;;;;;;;;6196428;23;20214;-89
2022/07/17 09:33:13;;;;;;;2.00;1.13;;;;;;;;;;6195330;23;20191;-91
2022/07/17 09:36:18;;;;;;;2.28;1.27;;;;;;;;;;6195899;23;20179;-89
2022/07/17 09:39:35;;;;;;;3.33;1.20;;;;;;;;;;6199731;23;20619;-91
2022/07/17 09:42:40;;;;;;;3.35;1.25;;;;;;;;;;6199101;23;20211;-90
2022/07/17 09:45:46;;;;;;;6.32;1.20;;;;;;;;;;6197037;23;20179;-91
2022/07/17 09:48:52;;;;;;;3.47;1.35;;;;;;;;;;6196121;23;20175;-91
2022/07/17 09:51:59;;;;;;;3.85;1.20;;;;;;;;;;6195705;23;20349;-90
2022/07/17 09:55:07;;;;;;;4.10;1.30;;;;;;;;;;6199449;23;20167;-91
2022/07/17 09:58:13;;;;;;;9.10;1.25;;;;;;;;;;6194751;23;20171;-92
2022/07/17 10:01:18;;;;;;;6.50;1.23;;;;;;;;;;6196726;23;20175;-91
2022/07/17 10:04:24;;;;;;;2.72;1.30;;;;;;;;;;6197813;23;20195;-90
2022/07/17 10:07:29;;;;;;;2.53;1.10;;;;;;;;;;6199364;23;20167;-92
2022/07/17 10:10:36;;;;;;;3.33;1.15;;;;;;;;;;6195966;23;20190;-92
2022/07/17 10:13:42;;;;;;;4.68;1.20;;;;;;;;;;6196585;23;20231;-91
2022/07/17 10:16:47;;;;;;;1.45;1.08;;;;;;;;;;6198146;23;20167;-88
2022/07/17 10:19:55;;;;;;;2.95;1.13;;;;;;;;;;6198109;23;20167;-89
2022/07/17 10:23:01;;;;;;;2.03;1.23;;;;;;;;;;6195628;23;20291;-89
2022/07/17 10:26:07;;;;;;;1.70;1.20;;;;;;;;;;6197084;23;20183;-92
2022/07/17 10:29:27;;;;;;;1.98;0.98;;;;;;;;;;6195486;23;20584;-87
2022/07/17 10:32:33;;;;;;;2.55;1.10;;;;;;;;;;6197835;23;20240;-90
2022/07/17 10:35:44;;;;;;;2.65;1.13;;;;;;;;;;6196717;23;20183;-90
2022/07/17 10:38:49;;;;;;;3.20;1.10;;;;;;;;;;6195156;23;20175;-89
2022/07/17 10:41:59;;;;;;;6.18;1.58;;;;;;;;;;6197662;23;20171;-91
2022/07/17 10:45:09;;;;;;;3.95;1.85;;;;;;;;;;6197395;23;20163;-91
2022/07/17 10:48:15;;;;;;;1.30;1.05;;;;;;;;;;6197579;23;20220;-90
2022/07/17 10:51:21;;;;;;;2.45;1.30;;;;;;;;;;6198946;23;20658;-91
2022/07/17 10:54:34;;;;;;;3.55;1.20;;;;;;;;;;6197878;23;20171;-89
2022/07/17 10:57:43;;;;;;;2.08;1.00;;;;;;;;;;6196787;23;20279;-89
2022/07/17 11:01:06;;;;;;;2.97;1.02;;;;;;;;;;6195714;23;20151;-89
2022/07/17 11:04:11;;;;;;;3.63;1.10;;;;;;;;;;6196998;23;20198;-89
2022/07/17 11:07:16;;;;;;;3.10;0.93;;;;;;;;;;6195181;23;20172;-91
2022/07/17 11:10:22;;;;;;;1.45;0.98;;;;;;;;;;6196289;23;20227;-91
2022/07/17 11:13:28;;;;;;;4.50;1.38;;;;;;;;;;6196362;23;20170;-92
2022/07/17 11:16:37;;;;;;;2.90;1.17;;;;;;;;;;6207330;23;20171;-88
2022/07/17 11:19:45;;;;;;;4.18;1.38;;;;;;;;;;6205254;23;20211;-93
2022/07/17 11:22:59;;;;;;;3.25;1.33;;;;;;;;;;6204933;23;20202;-90
2022/07/17 11:26:06;;;;;;;4.18;1.10;;;;;;;;;;6204158;23;20158;-91
2022/07/17 11:29:16;;;;;;;3.30;1.00;;;;;;;;;;6205913;23;20167;-91
2022/07/17 11:32:22;;;;;;;2.97;1.00;;;;;;;;;;6205314;23;20171;-91
2022/07/17 11:35:32;;;;;;;2.83;0.90;;;;;;;;;;6202601;23;20566;-93
2022/07/17 11:38:40;;;;;;;1.88;1.20;;;;;;;;;;6204313;23;20151;-90
2022/07/17 11:41:48;;;;;;;4.70;1.40;;;;;;;;;;6204571;23;20306;-91
2022/07/17 11:44:56;;;;;;;2.00;1.10;;;;;;;;;;6196601;23;20171;-90
2022/07/17 11:48:05;;;;;;;2.15;1.20;;;;;;;;;;6199497;23;20175;-90
2022/07/17 11:51:11;;;;;;;1.92;1.05;;;;;;;;;;6199391;23;20207;-93
2022/07/17 11:54:17;;;;;;;3.40;1.20;;;;;;;;;;6197807;23;20187;-90
2022/07/17 11:57:24;;;;;;;2.60;1.20;;;;;;;;;;6202838;23;20159;-91
2022/07/17 12:00:31;;;;;;;3.63;1.23;;;;;;;;;;6198527;23;20241;-93
2022/07/17 12:03:38;;;;;;;2.00;1.10;;;;;;;;;;6199191;23;20198;-91
2022/07/17 12:06:43;;;;;;;4.35;1.13;;;;;;;;;;6200751;23;20179;-90
2022/07/17 12:09:50;;;;;;;1.20;1.10;;;;;;;;;;6201372;23;20171;-92
2022/07/17 12:12:57;;;;;;;3.25;1.20;;;;;;;;;;6202909;23;20167;-94
2022/07/17 12:16:04;;;;;;;3.83;1.40;;;;;;;;;;6204034;23;20246;-92
2022/07/17 12:19:11;;;;;;;2.05;1.27;;;;;;;;;;6203414;23;20295;-90
2022/07/17 12:22:16;;;;;;;2.33;1.00;;;;;;;;;;6200359;23;20163;-92
2022/07/17 12:25:25;;;;;;;3.10;1.23;;;;;;;;;;6200005;23;20173;-92
2022/07/17 12:28:31;;;;;;;5.70;1.30;;;;;;;;;;6200113;23;20179;-90
2022/07/17 12:31:38;;;;;;;2.78;1.10;;;;;;;;;;6201454;23;20260;-91
2022/07/17 12:34:45;;;;;;;1.58;1.00;;;;;;;;;;6199618;23;20314;-91
2022/07/17 12:37:51;;;;;;;5.05;1.60;;;;;;;;;;6202092;23;20151;-90
2022/07/17 12:40:56;;;;;;;5.25;1.45;;;;;;;;;;6200143;23;20171;-92
2022/07/17 12:44:02;;;;;;;1.95;1.30;;;;;;;;;;6201542;23;20190;-93
2022/07/17 12:47:09;;;;;;;1.45;1.20;;;;;;;;;;6200716;23;20175;-92
2022/07/17 12:50:14;;;;;;;5.35;1.73;;;;;;;;;;6202034;23;20195;-93
2022/07/17 12:53:20;;;;;;;4.88;1.30;;;;;;;;;;6201784;23;20171;-90
2022/07/17 12:56:26;;;;;;;4.90;1.20;;;;;;;;;;6201921;23;20192;-91
2022/07/17 12:59:32;;;;;;;3.92;1.40;;;;;;;;;;6202218;23;20171;-92
2022/07/17 13:02:39;;;;;;;5.20;2.38;;;;;;;;;;6203200;23;20162;-92
2022/07/17 13:05:45;;;;;;;5.53;1.50;;;;;;;;;;6200744;23;20167;-90
2022/07/17 13:08:50;;;;;;;2.00;0.90;;;;;;;;;;6201168;23;20259;-90
2022/07/17 13:11:56;;;;;;;2.60;1.15;;;;;;;;;;6199992;23;20195;-91
2022/07/17 13:15:02;;;;;;;4.10;1.35;;;;;;;;;;6200317;23;20186;-92
2022/07/17 13:18:09;;;;;;;2.45;1.30;;;;;;;;;;6201366;23;20178;-89
2022/07/17 13:21:14;;;;;;;1.80;1.20;;;;;;;;;;6199817;23;20214;-92
2022/07/17 13:24:20;;;;;;;3.65;1.23;;;;;;;;;;6199763;23;20246;-90
2022/07/17 13:27:25;;;;;;;2.38;1.25;;;;;;;;;;6199999;23;20168;-90
2022/07/17 13:30:31;;;;;;;2.10;1.13;;;;;;;;;;6199589;23;20191;-91
2022/07/17 13:33:38;;;;;;;2.55;1.20;;;;;;;;;;6197489;23;20163;-91
2022/07/17 13:36:43;;;;;;;1.73;1.05;;;;;;;;;;6199845;23;20179;-90
2022/07/17 13:39:48;;;;;;;3.00;1.40;;;;;;;;;;6197689;23;20171;-92
2022/07/17 13:42:53;;;;;;;2.70;1.27;;;;;;;;;;6198639;23;20167;-90
2022/07/17 13:46:30;;;;;;;1.67;1.10;;;;;;;;;;6200029;23;20175;-89
2022/07/17 13:49:38;;;;;;;6.45;1.30;;;;;;;;;;6199941;23;20630;-90
2022/07/17 13:52:43;;;;;;;2.50;1.10;;;;;;;;;;6198250;23;20179;-89
2022/07/17 13:55:49;;;;;;;3.05;1.38;;;;;;;;;;6198386;23;20171;-92
2022/07/17 13:58:54;;;;;;;1.80;1.10;;;;;;;;;;6197816;23;20183;-89
2022/07/17 14:01:59;;;;;;;4.05;1.10;;;;;;;;;;6197330;23;20178;-91
2022/07/17 14:05:07;;;;;;;3.03;1.23;;;;;;;;;;6196638;23;20190;-90
2022/07/17 14:08:13;;;;;;;3.08;1.10;;;;;;;;;;6198304;23;20171;-92
2022/07/17 14:11:18;;;;;;;3.35;1.20;;;;;;;;;;6196956;23;20191;-90
2022/07/17 14:14:24;;;;;;;1.40;0.85;;;;;;;;;;6195723;23;20264;-91
2022/07/17 14:17:29;;;;;;;1.98;1.02;;;;;;;;;;6195651;23;20163;-92
2022/07/17 14:20:36;;;;;;;2.15;1.25;;;;;;;;;;6196579;23;20206;-92
2022/07/17 14:23:41;;;;;;;3.63;0.90;;;;;;;;;;6197253;23;20159;-91
2022/07/17 14:26:48;;;;;;;1.45;1.13;;;;;;;;;;6195691;23;20474;-90
2022/07/17 14:29:54;;;;;;;1.58;1.10;;;;;;;;;;6195619;23;20188;-92
2022/07/17 14:32:59;;;;;;;2.72;1.10;;;;;;;;;;6196663;23;20235;-89
2022/07/17 14:36:06;;;;;;;2.75;1.10;;;;;;;;;;6198233;23;20170;-91
2022/07/17 14:39:11;;;;;;;3.92;1.58;;;;;;;;;;6199545;23;20223;-91
2022/07/17 14:42:17;;;;;;;2.70;1.33;;;;;;;;;;6199301;23;20171;-91
2022/07/17 14:45:27;;;;;;;3.58;1.65;;;;;;;;;;6198881;23;20221;-91
2022/07/17 14:48:32;;;;;;;2.47;1.40;;;;;;;;;;6199660;23;20166;-92
2022/07/17 14:51:39;;;;;;;1.60;1.10;;;;;;;;;;6197531;23;20179;-91
2022/07/17 14:54:44;;;;;;;1.52;1.10;;;;;;;;;;6199653;23;20234;-89
2022/07/17 14:57:50;;;;;;;3.42;1.25;;;;;;;;;;6199547;23;20167;-91
2022/07/17 15:00:55;;;;;;;3.20;1.83;;;;;;;;;;6200535;23;20170;-90
2022/07/17 15:04:01;;;;;;;2.65;1.10;;;;;;;;;;6198351;23;20198;-90
2022/07/17 15:07:07;;;;;;;1.67;1.20;;;;;;;;;;6198233;23;20171;-90
2022/07/17 15:10:13;;;;;;;1.40;1.00;;;;;;;;;;6196470;23;20206;-91
2022/07/17 15:13:18;;;;;;;2.65;1.17;;;;;;;;;;6201588;23;20162;-91
2022/07/17 15:16:23;;;;;;;2.15;1.48;;;;;;;;;;6198392;23;20179;-90
2022/07/17 15:19:29;;;;;;;2.47;1.25;;;;;;;;;;6201388;23;20158;-92
2022/07/17 15:22:36;;;;;;;5.53;1.38;;;;;;;;;;6199006;23;20174;-89
2022/07/17 15:25:41;;;;;;;2.28;1.38;;;;;;;;;;6200306;23;20174;-90
2022/07/17 15:28:47;;;;;;;2.22;1.10;;;;;;;;;;6200313;23;20176;-91
2022/07/17 15:31:52;;;;;;;3.58;1.25;;;;;;;;;;6201152;23;20211;-89
2022/07/17 15:34:58;;;;;;;4.28;1.92;;;;;;;;;;6200895;23;20172;-88
2022/07/17 15:38:04;;;;;;;2.35;1.33;;;;;;;;;;6202927;23;20163;-90
2022/07/17 15:41:10;;;;;;;5.00;1.80;;;;;;;;;;6202434;23;20681;-88
2022/07/17 15:44:19;;;;;;;2.40;1.50;;;;;;;;;;6198890;23;20488;-91
2022/07/17 15:47:25;;;;;;;3.75;1.33;;;;;;;;;;6199765;23;20207;-90
2022/07/17 15:50:30;;;;;;;1.80;1.40;;;;;;;;;;6198016;23;20288;-89
2022/07/17 15:53:37;;;;;;;3.50;1.40;;;;;;;;;;6198749;23;20172;-91
2022/07/17 15:56:45;;;;;;;4.20;1.27;;;;;;;;;;6196122;23;20176;-91
2022/07/17 15:59:50;;;;;;;4.13;1.40;;;;;;;;;;6197202;23;20205;-91
2022/07/17 16:02:56;;;;;;;5.30;1.50;;;;;;;;;;6199584;23;20156;-90
2022/07/17 16:06:01;;;;;;;4.25;1.80;;;;;;;;;;6200418;23;20188;-89
2022/07/17 16:09:07;;;;;;;6.40;1.67;;;;;;;;;;6197484;23;20529;-90
2022/07/17 16:12:13;;;;;;;2.33;1.23;;;;;;;;;;6197774;23;20199;-91
2022/07/17 16:15:18;;;;;;;3.63;1.70;;;;;;;;;;6197444;23;20175;-89
2022/07/17 16:18:23;;;;;;;4.85;1.75;;;;;;;;;;6198687;23;20179;-89
2022/07/17 16:21:29;;;;;;;3.53;1.20;;;;;;;;;;6197837;23;20607;-90
2022/07/17 16:25:02;;;;;;;1.98;1.33;;;;;;;;;;6197819;23;20180;-89
2022/07/17 16:28:08;;;;;;;5.32;1.40;;;;;;;;;;6196503;23;20167;-89
2022/07/17 16:31:17;;;;;;;3.97;1.80;;;;;;;;;;6196270;23;20288;-90
2022/07/17 16:34:22;;;;;;;1.98;1.50;;;;;;;;;;6202369;23;20169;-91
2022/07/17 16:37:28;;;;;;;2.15;1.40;;;;;;;;;;6199432;23;20172;-92
2022/07/17 16:40:33;;;;;;;4.90;1.60;;;;;;;;;;6196448;23;20164;-90
2022/07/17 16:48:00;;;;;;;4.38;1.90;;;;;;;;;;6198894;23;20148;-89
2022/07/17 16:51:06;;;;;;;2.90;1.50;;;;;;;;;;6197543;23;20172;-90
2022/07/17 16:54:11;;;;;;;3.65;1.50;;;;;;;;;;6199182;23;20159;-88
2022/07/17 16:57:16;;;;;;;4.18;2.20;;;;;;;;;;6198689;23;20263;-89
2022/07/17 17:00:22;;;;;;;4.20;1.48;;;;;;;;;;6202147;23;20256;-88
2022/07/17 17:03:28;;;;;;;2.72;1.30;;;;;;;;;;6200168;23;20246;-88
2022/07/17 17:09:53;;;;;;;2.38;1.38;;;;;;;;;;6198444;23;20199;-90
2022/07/17 17:12:59;;;;;;;3.65;1.55;;;;;;;;;;6198351;23;20216;-91
2022/07/17 17:16:04;;;;;;;1.63;1.10;;;;;;;;;;6200240;23;20179;-88
2022/07/17 17:19:14;;;;;;;3.03;1.17;;;;;;;;;;6198001;23;20223;-90
2022/07/17 17:22:20;;;;;;;2.50;1.40;;;;;;;;;;6198155;23;20216;-92
2022/07/17 17:25:25;;;;;;;4.18;1.63;;;;;;;;;;6198159;23;20187;-89
2022/07/17 17:28:30;;;;;;;3.17;1.50;;;;;;;;;;6198646;23;20485;-90
2022/07/17 17:31:37;;;;;;;3.42;1.63;;;;;;;;;;6198855;23;20195;-89
2022/07/17 17:34:43;;;;;;;3.80;1.60;;;;;;;;;;6199095;23;20223;-90
2022/07/17 17:37:48;;;;;;;1.63;1.15;;;;;;;;;;6199498;23;20171;-90
2022/07/17 17:40:54;;;;;;;6.10;1.98;;;;;;;;;;6198673;23;20180;-90
2022/07/17 17:43:59;;;;;;;2.25;1.35;;;;;;;;;;6198268;23;20172;-90
2022/07/17 17:47:05;;;;;;;4.90;1.73;;;;;;;;;;6198610;23;20167;-90
2022/07/17 17:50:16;;;;;;;2.92;1.70;;;;;;;;;;6198382;23;20184;-90
2022/07/17 17:53:21;;;;;;;6.25;2.05;;;;;;;;;;6197005;23;20191;-92
2022/07/17 17:56:26;;;;;;;4.57;2.72;;;;;;;;;;6196913;23;20172;-91
2022/07/17 17:59:31;;;;;;;5.45;2.60;;;;;;;;;;6197203;23;20171;-89
2022/07/17 18:02:37;;;;;;;3.10;1.40;;;;;;;;;;6196434;23;20168;-88
2022/07/17 18:05:44;;;;;;;4.68;1.40;;;;;;;;;;6197015;23;20176;-89
2022/07/17 18:08:49;;;;;;;7.75;2.20;;;;;;;;;;6197565;23;20236;-89
2022/07/17 18:11:54;;;;;;;6.78;2.25;;;;;;;;;;6199692;23;20183;-90
2022/07/17 18:15:00;;;;;;;5.10;1.70;;;;;;;;;;6199388;23;20167;-89
2022/07/17 18:18:05;;;;;;;5.05;1.88;;;;;;;;;;6197662;23;20236;-88
2022/07/17 18:21:13;;;;;;;4.07;1.67;;;;;;;;;;6199746;23;20180;-88
2022/07/17 18:24:19;;;;;;;5.05;1.60;;;;;;;;;;6199593;23;20277;-87
2022/07/17 18:27:24;;;;;;;5.13;1.67;;;;;;;;;;6199805;23;20175;-88
2022/07/17 18:30:30;;;;;;;4.30;1.63;;;;;;;;;;6198948;23;20243;-88
2022/07/17 18:36:56;;;;;;;5.03;1.83;;;;;;;;;;6204183;23;20235;-90
2022/07/17 18:40:02;;;;;;;5.85;1.83;;;;;;;;;;6202372;23;20175;-90
2022/07/17 18:43:09;;;;;;;3.08;1.80;;;;;;;;;;6205583;23;20172;-87
2022/07/17 18:46:14;;;;;;;3.35;1.67;;;;;;;;;;6202411;23;20179;-88
2022/07/17 18:49:24;;;;;;;3.22;1.60;;;;;;;;;;6200321;23;20180;-88
2022/07/17 18:52:31;;;;;;;3.47;1.70;;;;;;;;;;6198768;23;20223;-89